createdAt,value
2017-10-27T00:00:44.493Z,96.40
2017-10-27T00:03:11.924Z,100.97
2017-10-27T00:05:39.349Z,89.73
2017-10-27T00:08:06.801Z,121.20
2017-10-27T00:10:34.230Z,116.73
2017-10-27T00:13:01.657Z,109.93
2017-10-27T00:15:29.097Z,107.00
2017-10-27T00:17:56.526Z,100.57
2017-10-27T00:20:23.949Z,112.80
2017-10-27T00:22:51.397Z,125.53
2017-10-27T00:25:18.821Z,108.37
2017-10-27T00:27:46.264Z,123.23
2017-10-27T00:30:13.700Z,115.50
2017-10-27T00:32:41.134Z,135.47
2017-10-27T00:35:08.581Z,129.20
2017-10-27T00:37:36.005Z,107.93
2017-10-27T00:40:03.436Z,116.77
2017-10-27T00:42:30.873Z,121.33
2017-10-27T00:44:58.296Z,125.77
2017-10-27T00:47:25.716Z,129.30
2017-10-27T00:49:53.161Z,126.10
2017-10-27T00:52:20.590Z,127.00
2017-10-27T00:54:48.016Z,121.30
2017-10-27T00:57:15.457Z,95.47
2017-10-27T00:59:42.872Z,97.03
2017-10-27T01:02:10.298Z,109.93
2017-10-27T01:04:37.741Z,109.73
2017-10-27T01:07:05.172Z,122.03
2017-10-27T01:09:32.592Z,88.90
2017-10-27T01:12:00.046Z,106.43
2017-10-27T01:14:27.463Z,109.60
2017-10-27T01:16:54.900Z,103.47
2017-10-27T01:19:22.352Z,119.57
2017-10-27T01:21:49.768Z,134.77
2017-10-27T01:24:17.205Z,139.77
2017-10-27T01:26:44.644Z,118.43
2017-10-27T01:29:12.063Z,120.23
2017-10-27T01:31:39.493Z,123.63
2017-10-27T01:34:06.939Z,133.13
2017-10-27T01:36:34.388Z,123.33
2017-10-27T01:39:01.812Z,118.37
2017-10-27T01:41:29.252Z,130.20
2017-10-27T01:43:56.677Z,118.10
2017-10-27T01:46:24.105Z,124.00
2017-10-27T01:48:51.541Z,118.30
2017-10-27T01:51:18.964Z,119.00
2017-10-27T01:53:46.391Z,98.60
2017-10-27T01:56:13.837Z,115.07
2017-10-27T01:58:41.260Z,105.73
2017-10-27T02:01:08.693Z,103.57
2017-10-27T02:03:36.141Z,100.83
2017-10-27T02:06:03.564Z,101.93
2017-10-27T02:08:30.989Z,81.77
2017-10-27T02:10:58.425Z,95.17
2017-10-27T02:13:25.850Z,74.17
2017-10-27T02:15:53.269Z,78.57
2017-10-27T02:18:20.708Z,70.23
2017-10-27T02:20:48.132Z,78.83
2017-10-27T02:23:15.551Z,72.53
2017-10-27T02:25:42.992Z,84.80
2017-10-27T02:28:10.423Z,87.90
2017-10-27T02:30:37.844Z,86.27
2017-10-27T02:33:05.289Z,85.60
2017-10-27T02:35:32.737Z,81.97
2017-10-27T02:38:00.156Z,79.23
2017-10-27T02:40:27.598Z,83.70
2017-10-27T02:42:55.022Z,81.47
2017-10-27T02:45:22.447Z,75.07
2017-10-27T02:47:49.883Z,80.27
2017-10-27T02:50:17.296Z,74.00
2017-10-27T02:52:44.688Z,84.33
2017-10-27T02:55:12.169Z,80.53
2017-10-27T02:57:39.598Z,69.87
2017-10-27T03:00:07.021Z,77.43
2017-10-27T03:02:34.457Z,77.33
2017-10-27T03:05:01.881Z,74.93
2017-10-27T03:07:29.312Z,61.30
2017-10-27T03:09:56.788Z,69.07
2017-10-27T03:12:24.200Z,66.50
2017-10-27T03:14:51.620Z,59.37
2017-10-27T03:17:19.059Z,55.10
2017-10-27T03:19:46.485Z,54.20
2017-10-27T03:22:13.908Z,56.30
2017-10-27T03:24:41.364Z,54.10
2017-10-27T03:27:08.797Z,59.50
2017-10-27T03:29:36.213Z,54.90
2017-10-27T03:32:03.653Z,57.20
2017-10-27T03:34:31.076Z,56.83
2017-10-27T03:36:58.496Z,76.43
2017-10-27T03:39:25.937Z,60.83
2017-10-27T03:41:53.357Z,64.93
2017-10-27T03:44:20.777Z,68.27
2017-10-27T03:46:48.215Z,57.57
2017-10-27T03:49:15.644Z,63.80
2017-10-27T03:51:43.061Z,60.77
2017-10-27T03:54:10.500Z,62.53
2017-10-27T03:56:37.929Z,74.20
2017-10-27T03:59:05.344Z,69.97
2017-10-27T04:01:32.785Z,70.50
2017-10-27T04:04:00.214Z,79.50
2017-10-27T04:06:27.632Z,63.37
2017-10-27T04:08:55.076Z,86.83
2017-10-27T04:11:22.561Z,81.37
2017-10-27T04:13:50.008Z,67.90
2017-10-27T04:16:17.450Z,89.80
2017-10-27T04:18:44.877Z,102.53
2017-10-27T04:21:12.302Z,77.70
2017-10-27T04:23:40.077Z,98.00
2017-10-27T04:26:07.505Z,82.17
2017-10-27T04:28:34.933Z,79.23
2017-10-27T04:31:02.374Z,80.87
2017-10-27T04:33:29.792Z,76.43
2017-10-27T04:35:57.341Z,88.53
2017-10-27T04:38:24.783Z,86.93
2017-10-27T04:40:52.213Z,75.83
2017-10-27T04:43:19.640Z,75.93
2017-10-27T04:45:47.080Z,71.13
2017-10-27T04:48:14.504Z,69.80
2017-10-27T04:50:41.892Z,86.40
2017-10-27T04:53:09.369Z,78.00
2017-10-27T04:55:36.794Z,70.40
2017-10-27T04:58:04.221Z,72.77
2017-10-27T05:00:31.656Z,70.07
2017-10-27T05:02:59.086Z,65.13
2017-10-27T05:05:26.504Z,57.83
2017-10-27T05:07:54.536Z,64.87
2017-10-27T05:10:21.956Z,55.60
2017-10-27T05:12:49.385Z,55.07
2017-10-27T05:15:16.828Z,51.73
2017-10-27T05:17:49.633Z,54.70
2017-10-27T05:20:22.606Z,50.80
2017-10-27T05:22:55.741Z,43.23
2017-10-27T05:25:23.183Z,44.33
2017-10-27T05:27:50.966Z,48.80
2017-10-27T05:30:20.496Z,39.07
2017-10-27T05:32:49.066Z,36.13
2017-10-27T05:35:16.500Z,41.83
2017-10-27T05:37:44.194Z,37.23
2017-10-27T05:40:11.629Z,37.10
2017-10-27T05:42:39.052Z,31.53
2017-10-27T05:45:06.473Z,34.30
2017-10-27T05:47:33.912Z,31.40
2017-10-27T05:50:01.337Z,31.67
2017-10-27T05:52:28.758Z,28.87
2017-10-27T05:54:56.192Z,29.60
2017-10-27T05:57:23.612Z,34.50
2017-10-27T05:59:51.037Z,38.40
2017-10-27T06:02:18.478Z,39.33
2017-10-27T06:04:45.901Z,38.63
2017-10-27T06:07:13.326Z,47.87
2017-10-27T06:09:40.769Z,64.97
2017-10-27T06:12:08.188Z,57.13
2017-10-27T06:14:35.607Z,69.50
2017-10-27T06:17:03.044Z,68.40
2017-10-27T06:19:30.481Z,60.93
2017-10-27T06:21:57.891Z,56.10
2017-10-27T06:24:25.332Z,62.83
2017-10-27T06:26:52.750Z,58.43
2017-10-27T06:29:20.172Z,58.67
2017-10-27T06:31:47.621Z,54.30
2017-10-27T06:34:15.054Z,69.20
2017-10-27T06:36:42.473Z,60.03
2017-10-27T06:39:09.917Z,58.63
2017-10-27T06:41:37.375Z,51.10
2017-10-27T06:44:04.800Z,39.93
2017-10-27T06:46:32.232Z,36.07
2017-10-27T06:48:59.651Z,36.67
2017-10-27T06:51:27.123Z,41.07
2017-10-27T06:53:54.542Z,33.27
2017-10-27T06:56:21.977Z,40.37
2017-10-27T06:58:49.416Z,34.40
2017-10-27T07:01:16.837Z,36.00
2017-10-27T07:03:44.261Z,29.00
2017-10-27T07:06:11.701Z,34.40
2017-10-27T07:08:39.128Z,31.30
2017-10-27T07:11:06.570Z,32.77
2017-10-27T07:13:34.022Z,37.27
2017-10-27T07:16:01.445Z,31.90
2017-10-27T07:18:28.869Z,34.53
2017-10-27T07:20:56.314Z,34.03
2017-10-27T07:23:23.742Z,43.33
2017-10-27T07:25:51.169Z,41.07
2017-10-27T07:28:18.608Z,44.27
2017-10-27T07:30:46.034Z,44.57
2017-10-27T07:33:13.470Z,37.70
2017-10-27T07:35:40.929Z,47.37
2017-10-27T07:38:08.354Z,44.63
2017-10-27T07:40:36.629Z,49.13
2017-10-27T07:43:04.053Z,45.57
2017-10-27T07:45:31.494Z,45.77
2017-10-27T07:47:58.937Z,61.47
2017-10-27T07:50:26.360Z,50.03
2017-10-27T07:52:53.805Z,48.37
2017-10-27T07:55:21.232Z,49.50
2017-10-27T07:57:48.665Z,49.23
2017-10-27T08:00:16.102Z,45.73
2017-10-27T08:02:43.535Z,50.30
2017-10-27T08:05:10.961Z,47.63
2017-10-27T08:07:38.479Z,63.23
2017-10-27T08:10:05.907Z,49.97
2017-10-27T08:12:33.324Z,56.10
2017-10-27T08:15:00.773Z,53.37
2017-10-27T08:17:28.201Z,53.07
2017-10-27T08:19:55.645Z,53.33
2017-10-27T08:22:23.092Z,49.33
2017-10-27T08:24:50.509Z,44.53
2017-10-27T08:27:17.953Z,44.33
2017-10-27T08:29:45.387Z,45.00
2017-10-27T08:32:12.812Z,38.90
2017-10-27T08:34:40.244Z,36.47
2017-10-27T08:37:07.700Z,41.40
2017-10-27T08:39:35.216Z,39.23
2017-10-27T08:42:02.652Z,43.00
2017-10-27T08:44:30.077Z,41.30
2017-10-27T08:46:57.500Z,39.60
2017-10-27T08:49:24.948Z,47.33
2017-10-27T08:51:52.361Z,41.67
2017-10-27T08:54:19.785Z,49.67
2017-10-27T08:56:47.223Z,33.83
2017-10-27T08:59:14.650Z,47.13
2017-10-27T09:01:42.077Z,41.10
2017-10-27T09:04:09.520Z,35.30
2017-10-27T09:06:36.944Z,35.33
2017-10-27T09:09:04.369Z,38.50
2017-10-27T09:11:31.816Z,39.57
2017-10-27T09:13:59.245Z,42.90
2017-10-27T09:16:26.667Z,45.23
2017-10-27T09:18:54.107Z,36.60
2017-10-27T09:21:21.520Z,41.83
2017-10-27T09:23:48.944Z,35.63
2017-10-27T09:26:16.385Z,39.97
2017-10-27T09:28:43.805Z,36.40
2017-10-27T09:31:11.229Z,37.50
2017-10-27T09:33:38.661Z,37.10
2017-10-27T09:36:06.084Z,31.17
2017-10-27T09:38:33.508Z,23.77
2017-10-27T09:41:00.968Z,36.70
2017-10-27T09:43:28.396Z,33.63
2017-10-27T09:45:55.823Z,28.37
2017-10-27T09:48:23.260Z,27.63
2017-10-27T09:50:50.682Z,23.23
2017-10-27T09:53:18.101Z,32.33
2017-10-27T09:55:45.536Z,42.37
2017-10-27T09:58:12.960Z,30.50
2017-10-27T10:00:40.388Z,24.57
2017-10-27T10:03:07.854Z,24.73
2017-10-27T10:05:35.275Z,25.50
2017-10-27T10:08:02.692Z,21.00
2017-10-27T10:10:30.132Z,20.80
2017-10-27T10:12:57.561Z,21.47
2017-10-27T10:15:24.988Z,21.27
2017-10-27T10:17:52.430Z,33.47
2017-10-27T10:20:19.855Z,24.37
2017-10-27T10:22:47.273Z,26.97
2017-10-27T10:25:16.453Z,22.10
2017-10-27T10:27:43.865Z,20.00
2017-10-27T10:30:11.289Z,27.30
2017-10-27T10:32:38.728Z,16.87
2017-10-27T10:35:06.158Z,26.17
2017-10-27T10:37:33.579Z,18.03
2017-10-27T10:40:01.007Z,13.93
2017-10-27T10:42:28.456Z,18.67
2017-10-27T10:44:55.876Z,16.00
2017-10-27T10:47:23.317Z,20.77
2017-10-27T10:49:50.744Z,19.23
2017-10-27T10:52:18.164Z,18.57
2017-10-27T10:54:45.612Z,24.77
2017-10-27T10:57:13.040Z,30.20
2017-10-27T10:59:40.469Z,21.93
2017-10-27T11:02:07.905Z,15.57
2017-10-27T11:04:35.329Z,13.37
2017-10-27T11:07:02.757Z,18.00
2017-10-27T11:09:30.193Z,22.93
2017-10-27T11:11:57.612Z,19.97
2017-10-27T11:14:25.063Z,14.73
2017-10-27T11:16:52.488Z,14.90
2017-10-27T11:19:19.917Z,16.90
2017-10-27T11:21:47.352Z,23.63
2017-10-27T11:24:14.780Z,19.27
2017-10-27T11:26:42.196Z,22.73
2017-10-27T11:29:09.632Z,14.43
2017-10-27T11:31:37.057Z,12.60
2017-10-27T11:34:04.472Z,27.10
2017-10-27T11:36:31.913Z,16.60
2017-10-27T11:38:59.328Z,20.17
2017-10-27T11:41:26.753Z,15.97
2017-10-27T11:43:54.189Z,17.30
2017-10-27T11:46:21.612Z,14.43
2017-10-27T11:48:49.038Z,18.90
2017-10-27T11:51:16.472Z,12.40
2017-10-27T11:53:43.889Z,13.33
2017-10-27T11:56:11.317Z,11.27
2017-10-27T11:58:38.750Z,14.83
2017-10-27T12:01:06.172Z,16.73
2017-10-27T12:03:33.584Z,18.23
2017-10-27T12:06:01.024Z,17.70
2017-10-27T12:08:28.445Z,12.63
2017-10-27T12:10:55.873Z,15.10
2017-10-27T12:13:23.304Z,14.27
2017-10-27T12:15:50.717Z,12.63
2017-10-27T12:18:18.128Z,12.80
2017-10-27T12:20:45.573Z,13.20
2017-10-27T12:23:13.009Z,13.83
2017-10-27T12:25:40.441Z,12.80
2017-10-27T12:28:07.868Z,17.17
2017-10-27T12:30:35.288Z,19.50
2017-10-27T12:33:02.709Z,12.20
2017-10-27T12:35:30.144Z,21.67
2017-10-27T12:37:57.565Z,12.70
2017-10-27T12:40:25.052Z,13.60
2017-10-27T12:42:52.476Z,11.60
2017-10-27T12:45:19.897Z,10.10
2017-10-27T12:47:47.325Z,9.60
2017-10-27T12:50:14.744Z,12.73
2017-10-27T12:52:42.166Z,14.33
2017-10-27T12:55:09.605Z,14.80
2017-10-27T12:57:37.026Z,12.87
2017-10-27T13:00:04.445Z,12.13
2017-10-27T13:02:31.876Z,14.17
2017-10-27T13:04:59.293Z,13.63
2017-10-27T13:07:26.709Z,15.20
2017-10-27T13:09:54.145Z,16.30
2017-10-27T13:12:21.557Z,8.17
2017-10-27T13:14:48.977Z,13.73
2017-10-27T13:17:16.416Z,9.27
2017-10-27T13:19:43.822Z,8.13
2017-10-27T13:22:11.234Z,10.10
2017-10-27T13:24:38.789Z,15.07
2017-10-27T13:27:06.213Z,14.57
2017-10-27T13:29:33.629Z,6.30
2017-10-27T13:32:01.052Z,6.97
2017-10-27T13:34:28.469Z,5.70
2017-10-27T13:36:55.879Z,5.93
2017-10-27T13:39:23.308Z,8.37
2017-10-27T13:41:50.717Z,9.43
2017-10-27T13:44:18.133Z,5.70
2017-10-27T13:46:45.561Z,6.80
2017-10-27T13:49:12.981Z,5.80
2017-10-27T13:51:40.392Z,9.07
2017-10-27T13:54:07.830Z,6.00
2017-10-27T13:56:35.244Z,7.77
2017-10-27T13:59:02.661Z,10.40
2017-10-27T14:01:30.096Z,6.23
2017-10-27T14:03:57.516Z,12.33
2017-10-27T14:06:24.942Z,7.10
2017-10-27T14:08:52.359Z,9.33
2017-10-27T14:11:19.779Z,8.37
2017-10-27T14:13:47.184Z,9.90
2017-10-27T14:16:14.612Z,11.17
2017-10-27T14:18:42.033Z,10.57
2017-10-27T14:21:09.449Z,8.77
2017-10-27T14:23:36.877Z,10.77
2017-10-27T14:26:04.293Z,10.77
2017-10-27T14:28:31.717Z,6.87
2017-10-27T14:30:59.159Z,14.30
2017-10-27T14:33:26.564Z,6.57
2017-10-27T14:35:53.985Z,10.37
2017-10-27T14:38:21.425Z,11.30
2017-10-27T14:40:48.840Z,19.00
2017-10-27T14:43:16.257Z,11.87
2017-10-27T14:45:43.688Z,8.43
2017-10-27T14:48:11.109Z,20.50
2017-10-27T14:50:38.529Z,7.13
2017-10-27T14:53:05.965Z,11.27
2017-10-27T14:55:33.381Z,10.33
2017-10-27T14:58:00.799Z,19.17
2017-10-27T15:00:28.246Z,11.63
2017-10-27T15:02:55.659Z,9.50
2017-10-27T15:05:23.076Z,7.27
2017-10-27T15:07:50.537Z,14.97
2017-10-27T15:10:17.961Z,8.87
2017-10-27T15:12:45.379Z,10.23
2017-10-27T15:15:12.813Z,13.43
2017-10-27T15:17:40.232Z,12.37
2017-10-27T15:20:07.656Z,7.90
2017-10-27T15:22:35.089Z,31.20
2017-10-27T15:25:02.501Z,8.43
2017-10-27T15:27:29.968Z,10.10
2017-10-27T15:29:57.377Z,12.60
2017-10-27T15:32:24.792Z,8.43
2017-10-27T15:34:52.221Z,8.47
2017-10-27T15:37:19.641Z,15.00
2017-10-27T15:39:47.054Z,15.53
2017-10-27T15:42:14.484Z,11.33
2017-10-27T15:44:41.903Z,14.23
2017-10-27T15:47:09.316Z,8.93
2017-10-27T15:49:36.765Z,12.30
2017-10-27T15:52:04.175Z,15.87
2017-10-27T15:54:31.600Z,12.20
2017-10-27T15:56:59.029Z,20.93
2017-10-27T15:59:26.449Z,12.50
2017-10-27T16:01:53.864Z,8.97
2017-10-27T16:04:21.300Z,8.27
2017-10-27T16:06:48.721Z,10.60
2017-10-27T16:09:16.137Z,9.70
2017-10-27T16:11:43.573Z,12.13
2017-10-27T16:14:10.994Z,12.50
2017-10-27T16:16:38.416Z,12.30
2017-10-27T16:19:05.853Z,13.40
2017-10-27T16:21:33.268Z,12.50
2017-10-27T16:24:00.680Z,13.33
2017-10-27T16:26:28.117Z,10.47
2017-10-27T16:28:55.541Z,12.33
2017-10-27T16:31:22.952Z,12.03
2017-10-27T16:33:50.393Z,16.83
2017-10-27T16:36:17.812Z,8.47
2017-10-27T16:38:45.238Z,20.87
2017-10-27T16:41:12.673Z,12.90
2017-10-27T16:43:40.097Z,33.27
2017-10-27T16:46:08.224Z,17.43
2017-10-27T16:48:36.193Z,13.60
2017-10-27T16:51:03.600Z,8.47
2017-10-27T16:53:31.026Z,11.40
2017-10-27T16:55:58.477Z,17.93
2017-10-27T16:58:25.892Z,12.27
2017-10-27T17:00:53.313Z,10.37
2017-10-27T17:03:20.749Z,11.07
2017-10-27T17:05:48.166Z,15.07
2017-10-27T17:08:15.585Z,16.37
2017-10-27T17:10:43.041Z,16.70
2017-10-27T17:13:10.465Z,22.17
2017-10-27T17:15:37.960Z,17.07
2017-10-27T17:18:05.401Z,15.63
2017-10-27T17:20:32.820Z,20.70
2017-10-27T17:23:00.272Z,10.33
2017-10-27T17:25:27.704Z,10.40
2017-10-27T17:27:58.172Z,14.10
2017-10-27T17:30:29.426Z,14.80
2017-10-27T17:32:57.604Z,14.90
2017-10-27T17:35:25.028Z,16.37
2017-10-27T17:37:55.692Z,14.27
2017-10-27T17:40:23.175Z,13.47
2017-10-27T17:42:50.605Z,19.70
2017-10-27T17:45:18.056Z,13.73
2017-10-27T17:47:45.515Z,24.13
2017-10-27T17:50:12.948Z,18.80
2017-10-27T17:52:41.128Z,16.50
2017-10-27T17:55:08.560Z,19.30
2017-10-27T17:57:36.352Z,14.47
2017-10-27T18:00:03.789Z,17.60
2017-10-27T18:02:31.221Z,16.50
2017-10-27T18:04:58.653Z,18.40
2017-10-27T18:07:26.077Z,15.80
2017-10-27T18:09:53.550Z,20.23
2017-10-27T18:12:20.972Z,16.67
2017-10-27T18:14:48.389Z,13.30
2017-10-27T18:17:15.839Z,20.07
2017-10-27T18:19:43.260Z,21.53
2017-10-27T18:22:10.685Z,13.77
2017-10-27T18:24:38.120Z,15.17
2017-10-27T18:27:05.540Z,19.20
2017-10-27T18:29:32.956Z,16.10
2017-10-27T18:32:00.404Z,14.47
2017-10-27T18:34:27.840Z,22.50
2017-10-27T18:36:55.280Z,19.60
2017-10-27T18:39:22.713Z,16.87
2017-10-27T18:41:50.213Z,25.70
2017-10-27T18:44:17.651Z,16.07
2017-10-27T18:46:45.074Z,20.87
2017-10-27T18:49:12.502Z,18.40
2017-10-27T18:51:39.945Z,17.97
2017-10-27T18:54:07.361Z,21.77
2017-10-27T18:56:34.793Z,16.27
2017-10-27T18:59:02.249Z,16.60
2017-10-27T19:01:29.775Z,14.37
2017-10-27T19:03:58.013Z,19.10
2017-10-27T19:06:25.455Z,21.13
2017-10-27T19:08:52.877Z,24.27
2017-10-27T19:11:20.315Z,19.83
2017-10-27T19:13:48.692Z,24.03
2017-10-27T19:16:16.125Z,18.40
2017-10-27T19:18:43.722Z,12.80
2017-10-27T19:21:11.186Z,18.53
2017-10-27T19:23:38.711Z,19.27
2017-10-27T19:26:06.198Z,28.03
2017-10-27T19:28:33.846Z,20.93
2017-10-27T19:31:01.374Z,28.10
2017-10-27T19:33:28.904Z,16.17
2017-10-27T19:35:56.450Z,16.23
2017-10-27T19:38:24.136Z,14.70
2017-10-27T19:40:52.047Z,16.83
2017-10-27T19:43:19.823Z,12.47
2017-10-27T19:45:50.728Z,19.20
2017-10-27T19:48:18.705Z,16.33
2017-10-27T19:50:46.498Z,15.50
2017-10-27T19:53:14.493Z,21.20
2017-10-27T19:55:42.243Z,20.00
2017-10-27T19:58:09.748Z,19.20
2017-10-27T20:00:37.229Z,21.13
2017-10-27T20:03:04.682Z,14.60
2017-10-27T20:05:32.110Z,20.13
2017-10-27T20:07:59.577Z,23.43
2017-10-27T20:10:27.029Z,19.60
2017-10-27T20:12:54.473Z,20.60
2017-10-27T20:15:21.949Z,22.47
2017-10-27T20:17:49.469Z,17.10
2017-10-27T20:20:16.916Z,18.73
2017-10-27T20:22:44.349Z,13.70
2017-10-27T20:25:11.795Z,18.57
2017-10-27T20:27:39.221Z,17.37
2017-10-27T20:30:06.657Z,17.00
2017-10-27T20:32:34.110Z,20.23
2017-10-27T20:35:01.528Z,18.83
2017-10-27T20:37:28.951Z,15.43
2017-10-27T20:39:56.396Z,24.40
2017-10-27T20:42:23.820Z,20.20
2017-10-27T20:44:51.253Z,12.97
2017-10-27T20:47:18.689Z,15.50
2017-10-27T20:49:46.108Z,15.60
2017-10-27T20:52:13.545Z,15.90
2017-10-27T20:54:40.968Z,23.07
2017-10-27T20:57:08.406Z,46.70
2017-10-27T20:59:35.845Z,14.80
2017-10-27T21:02:03.274Z,36.97
2017-10-27T21:04:30.694Z,20.47
2017-10-27T21:06:58.133Z,18.43
2017-10-27T21:09:25.557Z,19.20
2017-10-27T21:11:52.983Z,18.10
2017-10-27T21:14:20.429Z,16.23
2017-10-27T21:16:47.856Z,20.53
2017-10-27T21:19:15.297Z,22.37
2017-10-27T21:21:42.742Z,17.60
2017-10-27T21:24:10.159Z,19.90
2017-10-27T21:26:37.597Z,23.93
2017-10-27T21:29:05.017Z,19.30
2017-10-27T21:31:32.452Z,20.70
2017-10-27T21:33:59.893Z,28.30
2017-10-27T21:36:27.314Z,19.17
2017-10-27T21:38:54.757Z,19.07
2017-10-27T21:41:22.176Z,28.03
2017-10-27T21:43:49.605Z,16.27
2017-10-27T21:46:17.041Z,29.00
2017-10-27T21:48:44.468Z,21.43
2017-10-27T21:51:11.895Z,20.70
2017-10-27T21:53:39.935Z,22.80
2017-10-27T21:56:07.365Z,19.40
2017-10-27T21:58:34.786Z,23.73
2017-10-27T22:01:02.238Z,21.07
2017-10-27T22:03:29.657Z,21.87
2017-10-27T22:05:57.080Z,26.10
2017-10-27T22:08:24.549Z,36.30
2017-10-27T22:10:51.973Z,28.47
2017-10-27T22:13:19.405Z,23.67
2017-10-27T22:15:46.840Z,19.97
2017-10-27T22:18:14.257Z,17.77
2017-10-27T22:20:41.669Z,20.33
2017-10-27T22:23:09.117Z,16.03
2017-10-27T22:25:36.537Z,25.83
2017-10-27T22:28:03.969Z,20.37
2017-10-27T22:30:31.415Z,20.33
2017-10-27T22:32:58.828Z,25.93
2017-10-27T22:35:26.269Z,22.63
2017-10-27T22:37:53.696Z,22.33
2017-10-27T22:40:21.108Z,21.77
2017-10-27T22:42:48.541Z,17.90
2017-10-27T22:45:15.960Z,17.73
2017-10-27T22:47:43.381Z,18.23
2017-10-27T22:50:10.817Z,28.03
2017-10-27T22:52:38.235Z,20.60
2017-10-27T22:55:05.654Z,23.37
2017-10-27T22:57:33.088Z,22.30
2017-10-27T23:00:00.509Z,20.83
2017-10-27T23:02:27.928Z,31.23
2017-10-27T23:04:55.365Z,27.07
2017-10-27T23:07:22.786Z,17.20
2017-10-27T23:09:50.204Z,18.33
2017-10-27T23:12:16.928Z,22.03
2017-10-27T23:14:44.356Z,32.40
2017-10-27T23:17:11.772Z,14.97
2017-10-27T23:19:39.201Z,26.33
2017-10-27T23:22:06.621Z,19.63
2017-10-27T23:24:34.046Z,24.70
2017-10-27T23:27:01.488Z,17.47
2017-10-27T23:29:28.907Z,20.50
2017-10-27T23:31:56.323Z,34.73
2017-10-27T23:34:23.765Z,18.47
2017-10-27T23:36:51.180Z,23.60
2017-10-27T23:39:18.602Z,24.03
2017-10-27T23:41:46.029Z,24.57
2017-10-27T23:44:13.453Z,30.97
2017-10-27T23:46:40.875Z,24.80
2017-10-27T23:49:08.305Z,16.37
2017-10-27T23:51:35.732Z,24.67
2017-10-27T23:54:03.135Z,25.90
2017-10-27T23:56:30.560Z,18.43
2017-10-27T23:58:57.980Z,21.43
